Comins, Michigan
Current Conditions -  °F | °C
As of 7:13 AM on Saturday 25 Oct 2014 (Local Time) from KAPN Reporting Station
Overcast Overcast  
Wind Chill: 53°   Ceiling: 1400
Heat Index: 53°   Visibility: 10mi
Dew Point: 49°   Wind: 12mph
Humidity: 86%   Direction: 240°WSW
Pressure: 29.67"   Gusts: NA
Location:  44.8°N, 84.04°W
Report Text: KAPN 251113Z AUTO 24010KT 10SM OVC014 12/09 A2967 RMK AO2 T01170094
Loading
Personal Weather Stations






























Interactive Weather Map
Tropical Storm Tracking
New forecast layout! Learn more

10-Day Weather Forecast

Advertisements
Track Severe Weather on mobile